West Corners, New York
Current Conditions -  °F | °C
As of 10:53 AM on Friday 28 Nov 2014 (Local Time) from KBGM Reporting Station
Overcast Overcast  
Wind Chill: 11°   Ceiling: 3200
Heat Index: 23°   Visibility: 10mi
Dew Point: 12°   Wind: 13mph
Humidity: 63%   Direction: 300°WNW
Pressure: 30.13"   Gusts: 22mph
Location:  42.1332°N, 76.0798°W
Report Text: KBGM 281553Z 30011G19KT 10SM OVC032 M05/M11 A3013 RMK AO2 SLP228 T10501111
Loading
Personal Weather Stations






























Interactive Weather Map New forecast layout! Learn more

10-Day Weather Forecast

Advertisements
Track Severe Weather on mobile